Time;durP1;ratioP1;P1;durP2;ratioP2;P2;SDS_P1;SDS_P2;PMS_P1;PMS_P2;Temp;Humidity;BMP_temperature;BMP_pressure;BME280_temperature;BME280_humidity;BME280_pressure;Samples;Min_cycle;Max_cycle;Signal;HPM_P1;HPM_P2
2022/11/01 00:00:06;;;;;;;14.60;9.40;;;;;;;21.86;58.11;95650.72;5052035;28;20045;-64
2022/11/01 00:02:31;;;;;;;14.23;9.52;;;;;;;21.72;58.03;95624.41;5048993;28;20044;-66
2022/11/01 00:04:56;;;;;;;12.05;8.35;;;;;;;21.87;58.41;95658.41;5067371;28;20558;-64
2022/11/01 00:07:22;;;;;;;14.65;9.27;;;;;;;21.79;58.39;95643.00;5030273;28;20540;-64
2022/11/01 00:09:47;;;;;;;14.05;9.05;;;;;;;21.84;58.71;95647.72;5058347;28;20460;-68
2022/11/01 00:12:13;;;;;;;13.95;9.70;;;;;;;21.74;57.89;95657.31;5067969;28;20469;-65
2022/11/01 00:14:38;;;;;;;13.75;8.90;;;;;;;21.68;57.99;95629.34;5068801;28;20572;-64
2022/11/01 00:17:04;;;;;;;12.95;8.77;;;;;;;21.84;58.13;95648.50;5049901;28;20492;-63
2022/11/01 00:19:29;;;;;;;12.52;8.57;;;;;;;21.78;57.83;95633.34;5067753;28;20512;-63
2022/11/01 00:21:55;;;;;;;12.85;8.80;;;;;;;20.90;57.76;95503.50;5032916;28;20483;-60
2022/11/01 00:24:20;;;;;;;12.95;8.70;;;;;;;21.85;58.11;95649.22;5066942;28;20048;-62
2022/11/01 00:26:46;;;;;;;15.05;9.23;;;;;;;21.44;57.78;95582.69;5049105;28;20044;-70
2022/11/01 00:29:11;;;;;;;13.00;9.60;;;;;;;21.85;57.73;95649.22;5032883;28;20559;-61
2022/11/01 00:31:37;;;;;;;11.77;8.05;;;;;;;21.84;57.62;95645.00;5048659;28;20058;-67
2022/11/01 00:34:04;;;;;;;12.93;9.00;;;;;;;21.18;57.42;95564.91;5068884;28;20074;-66
2022/11/01 00:36:31;;;;;;;11.90;8.50;;;;;;;20.08;57.33;95384.06;5065684;28;20565;-68
2022/11/01 00:38:56;;;;;;;11.93;8.68;;;;;;;21.86;57.45;95650.72;5032666;28;20037;-62
2022/11/01 00:41:21;;;;;;;12.43;8.75;;;;;;;21.45;57.55;95590.38;5067833;28;20052;-66
2022/11/01 00:43:47;;;;;;;12.20;8.63;;;;;;;21.37;57.39;95574.97;5068194;28;20036;-63
2022/11/01 00:46:13;;;;;;;12.70;8.80;;;;;;;21.75;57.46;95635.09;5072251;28;20040;-69
2022/11/01 00:48:38;;;;;;;12.13;8.48;;;;;;;21.39;57.56;95580.69;5073659;28;20033;-64
2022/11/01 00:51:04;;;;;;;12.30;8.90;;;;;;;21.83;57.42;95646.25;5077621;28;20045;-67
2022/11/01 00:53:29;;;;;;;11.82;8.38;;;;;;;21.82;57.37;95650.19;5049491;28;20043;-66
2022/11/01 00:56:04;;;;;;;12.52;8.77;;;;;;;21.77;57.42;95646.22;5066958;28;20033;-69
2022/11/01 00:58:30;;;;;;;12.52;7.93;;;;;;;21.82;57.10;95666.50;5065389;28;20020;-62
2022/11/01 01:00:55;;;;;;;11.00;8.25;;;;;;;21.76;57.33;95646.69;5065999;28;20328;-64
2022/11/01 01:03:21;;;;;;;11.52;8.10;;;;;;;21.76;57.42;95644.72;5065823;28;20527;-67
2022/11/01 01:05:50;;;;;;;13.35;8.70;;;;;;;21.79;57.09;95657.34;5030379;28;20048;-62
2022/11/01 01:08:16;;;;;;;12.57;8.88;;;;;;;21.79;57.30;95656.59;5066056;28;20075;-67
2022/11/01 01:10:41;;;;;;;14.98;9.48;;;;;;;21.57;56.59;95619.13;5031338;28;20024;-62
2022/11/01 01:13:06;;;;;;;11.38;8.23;;;;;;;21.59;56.98;95621.38;5067059;28;20067;-66
2022/11/01 01:15:32;;;;;;;11.70;8.45;;;;;;;21.78;57.08;95652.38;5058489;28;20048;-66
2022/11/01 01:17:57;;;;;;;12.73;8.13;;;;;;;21.78;57.40;95652.38;5065787;28;20051;-65
2022/11/01 01:20:23;;;;;;;12.75;8.50;;;;;;;21.70;57.07;95645.91;5065256;28;20036;-69
2022/11/01 01:22:48;;;;;;;12.50;8.32;;;;;;;20.05;57.06;95395.13;5042854;28;20122;-67
2022/11/01 01:25:14;;;;;;;11.65;7.70;;;;;;;21.72;56.94;95640.72;5066126;28;20177;-69
2022/11/01 01:27:39;;;;;;;12.52;7.88;;;;;;;21.77;56.88;95648.19;5065366;28;20086;-61
2022/11/01 01:30:06;;;;;;;13.07;8.98;;;;;;;21.60;56.66;95628.31;5065366;28;20106;-61
2022/11/01 01:32:32;;;;;;;11.80;7.75;;;;;;;20.93;56.64;95526.97;5065026;28;20155;-67
2022/11/01 01:34:57;;;;;;;12.05;8.25;;;;;;;21.78;56.55;95674.13;5065247;28;20735;-62
2022/11/01 01:37:23;;;;;;;11.15;7.90;;;;;;;21.75;56.82;95661.50;5066541;28;20031;-70
2022/11/01 01:39:48;;;;;;;12.07;7.85;;;;;;;21.76;56.73;95655.56;5065630;28;20086;-62
2022/11/01 01:42:28;;;;;;;11.82;7.95;;;;;;;21.76;56.50;95657.56;5046110;28;20487;-66
2022/11/01 01:44:54;;;;;;;12.32;7.88;;;;;;;21.76;56.55;95657.56;5064854;28;20047;-70
2022/11/01 01:47:39;;;;;;;10.93;8.15;;;;;;;21.77;56.80;95659.06;5046788;28;20036;-62
2022/11/01 01:50:09;;;;;;;11.43;8.52;;;;;;;21.76;56.51;95660.28;5046976;28;20055;-65
2022/11/01 01:52:57;;;;;;;11.40;8.18;;;;;;;21.64;56.35;95664.13;5046491;28;20246;-66
2022/11/01 01:55:41;;;;;;;11.35;8.32;;;;;;;21.47;56.38;95630.66;5042156;28;20126;-63
2022/11/01 01:58:07;;;;;;;11.98;8.30;;;;;;;21.76;56.55;95663.00;5031990;28;20099;-63
2022/11/01 02:00:32;;;;;;;11.40;8.05;;;;;;;21.75;56.29;95661.50;5064251;28;20040;-63
2022/11/01 02:02:58;;;;;;;11.48;8.10;;;;;;;21.68;56.24;95656.53;5064724;28;20425;-63
2022/11/01 02:05:43;;;;;;;12.43;8.10;;;;;;;20.79;56.14;95514.22;5046682;28;20051;-65
2022/11/01 02:08:08;;;;;;;10.77;7.63;;;;;;;21.75;55.88;95664.97;5064118;28;20083;-65
2022/11/01 02:10:34;;;;;;;10.68;7.78;;;;;;;21.58;56.23;95645.09;5034456;28;20038;-59
2022/11/01 02:13:00;;;;;;;11.30;7.88;;;;;;;21.76;55.94;95673.88;5047050;28;20064;-67
2022/11/01 02:15:30;;;;;;;10.98;8.00;;;;;;;21.71;55.82;95661.00;5063727;28;20051;-60
2022/11/01 02:18:08;;;;;;;10.85;7.85;;;;;;;21.71;55.75;95655.56;5064238;28;20071;-69
2022/11/01 02:21:07;;;;;;;13.40;8.18;;;;;;;21.62;55.61;95677.47;5030385;28;20033;-67
2022/11/01 02:24:06;;;;;;;11.45;7.75;;;;;;;21.59;56.20;95648.53;4993179;28;20049;-64
2022/11/01 02:26:51;;;;;;;11.75;8.00;;;;;;;21.75;55.91;95666.94;5032532;28;20070;-69
2022/11/01 02:29:37;;;;;;;12.55;7.97;;;;;;;20.03;55.72;95409.16;5064079;28;20532;-61
2022/11/01 02:32:13;;;;;;;10.60;8.00;;;;;;;20.92;55.45;95536.31;5064144;28;20071;-65
2022/11/01 02:34:55;;;;;;;11.73;8.38;;;;;;;21.74;55.86;95670.91;5063747;28;20032;-64
2022/11/01 02:37:52;;;;;;;10.95;8.02;;;;;;;20.48;55.38;95481.59;5064400;28;20032;-64
2022/11/01 02:40:26;;;;;;;9.95;7.43;;;;;;;21.74;55.44;95673.63;5064032;28;20039;-66
2022/11/01 02:42:54;;;;;;;9.45;6.85;;;;;;;21.66;55.63;95670.59;5049232;28;20028;-64
2022/11/01 02:45:33;;;;;;;10.48;8.50;;;;;;;21.74;55.58;95676.34;5054493;28;20044;-63
2022/11/01 02:47:59;;;;;;;11.73;8.18;;;;;;;21.74;55.34;95684.50;5039414;28;20052;-68
2022/11/01 02:50:26;;;;;;;10.00;7.45;;;;;;;21.43;55.43;95651.81;5030664;28;20126;-65
2022/11/01 02:52:52;;;;;;;9.90;7.10;;;;;;;21.72;55.30;95689.66;5032378;28;20132;-66
2022/11/01 02:55:28;;;;;;;12.32;7.38;;;;;;;20.79;55.58;95573.94;5034402;28;20029;-59
2022/11/01 02:57:56;;;;;;;10.05;7.53;;;;;;;21.74;54.78;95692.66;5049571;28;20111;-62
2022/11/01 03:00:23;;;;;;;12.18;7.80;;;;;;;21.73;55.59;95691.16;5030092;28;20135;-65
2022/11/01 03:02:52;;;;;;;11.07;7.57;;;;;;;21.71;54.89;95690.91;5047201;28;20573;-69
2022/11/01 03:05:29;;;;;;;12.75;8.25;;;;;;;21.59;55.33;95670.28;5046898;28;20037;-70
2022/11/01 03:07:57;;;;;;;9.50;7.03;;;;;;;21.71;55.27;95699.06;5044438;28;20417;-64
2022/11/01 03:10:23;;;;;;;10.57;7.90;;;;;;;21.72;54.78;95695.09;5046273;28;20188;-64
2022/11/01 03:12:54;;;;;;;11.52;7.50;;;;;;;21.72;54.99;95700.53;5028754;28;20154;-66
2022/11/01 03:15:26;;;;;;;10.88;7.25;;;;;;;21.48;55.39;95670.19;5034016;28;20055;-61
2022/11/01 03:18:03;;;;;;;9.55;7.00;;;;;;;21.71;55.22;95705.22;5040635;28;20048;-66
2022/11/01 03:20:46;;;;;;;11.50;7.63;;;;;;;21.71;55.20;95705.22;5045638;28;20063;-66
2022/11/01 03:23:32;;;;;;;10.32;7.53;;;;;;;21.62;55.29;95691.06;5038965;28;20078;-64
2022/11/01 03:25:59;;;;;;;11.13;7.82;;;;;;;21.70;55.28;95703.75;5046459;28;20602;-65
2022/11/01 03:28:39;;;;;;;10.43;7.63;;;;;;;21.71;54.71;95704.47;5020088;28;20182;-64
2022/11/01 03:31:10;;;;;;;11.35;7.35;;;;;;;21.71;55.09;95699.06;5053601;28;20068;-63
2022/11/01 03:33:38;;;;;;;10.02;7.18;;;;;;;21.59;54.99;95698.19;5029056;28;20045;-68
2022/11/01 03:36:06;;;;;;;9.18;6.97;;;;;;;21.70;54.75;95724.72;5042542;28;20102;-67
2022/11/01 03:38:33;;;;;;;10.00;7.10;;;;;;;20.78;55.07;95558.88;5043697;28;20060;-67
2022/11/01 03:41:00;;;;;;;10.65;7.80;;;;;;;21.47;55.34;95663.25;5043154;28;20048;-68
2022/11/01 03:43:26;;;;;;;8.48;6.55;;;;;;;21.68;54.49;95705.44;5042840;28;20428;-64
2022/11/01 03:45:51;;;;;;;12.00;7.13;;;;;;;20.03;54.50;95446.38;5042161;28;20041;-65
2022/11/01 03:48:17;;;;;;;10.07;7.20;;;;;;;21.68;55.30;95705.44;5043107;28;20044;-69
2022/11/01 03:50:50;;;;;;;10.52;7.70;;;;;;;21.68;55.06;95700.00;5043018;28;20143;-67
2022/11/01 03:53:15;;;;;;;9.60;7.30;;;;;;;21.69;54.57;95696.06;5041166;28;20513;-62
2022/11/01 03:55:41;;;;;;;10.77;7.65;;;;;;;21.69;55.12;95717.81;5043376;28;20039;-69
2022/11/01 03:58:07;;;;;;;11.15;6.43;;;;;;;21.69;54.73;95701.50;5042295;28;20060;-70
2022/11/01 04:00:37;;;;;;;10.40;7.25;;;;;;;21.59;55.06;95687.31;5031560;28;20052;-66
2022/11/01 04:03:02;;;;;;;8.98;6.97;;;;;;;21.65;54.50;95706.41;5043246;28;20193;-64
2022/11/01 04:05:28;;;;;;;9.48;6.68;;;;;;;21.66;55.11;95691.59;5043236;28;20597;-68
2022/11/01 04:07:54;;;;;;;9.65;7.03;;;;;;;21.66;54.39;95697.03;5043115;28;20851;-64
2022/11/01 04:10:20;;;;;;;10.27;7.28;;;;;;;21.41;54.77;95665.16;5040066;28;20029;-66
2022/11/01 04:12:47;;;;;;;9.98;7.07;;;;;;;21.67;54.76;95725.69;5043700;28;20453;-70
2022/11/01 04:20:53;;;;;;;9.07;7.07;;;;;;;21.65;54.66;95700.97;5040330;28;20052;-65
2022/11/01 04:23:18;;;;;;;10.13;7.07;;;;;;;21.60;54.77;95693.53;5041880;28;20509;-65
2022/11/01 04:25:47;;;;;;;9.18;6.50;;;;;;;21.65;54.71;95739.03;5041691;28;20114;-66
2022/11/01 04:28:15;;;;;;;9.50;6.80;;;;;;;21.63;54.34;95714.31;5043347;28;20092;-66
2022/11/01 04:30:41;;;;;;;9.20;6.53;;;;;;;21.65;53.97;95700.97;5043149;28;20041;-63
2022/11/01 04:33:07;;;;;;;9.48;6.88;;;;;;;21.65;54.45;95695.53;5041366;28;20241;-63
2022/11/01 04:35:34;;;;;;;10.18;6.68;;;;;;;21.66;54.22;95694.31;5040634;28;20037;-63
2022/11/01 04:38:00;;;;;;;11.23;6.85;;;;;;;21.45;54.09;95671.88;5042486;28;20045;-63
2022/11/01 04:40:26;;;;;;;8.43;6.95;;;;;;;21.65;54.19;95701.72;5047311;28;20040;-64
2022/11/01 04:42:54;;;;;;;9.93;6.55;;;;;;;21.57;54.25;95689.78;5046554;28;20124;-68
2022/11/01 04:45:20;;;;;;;10.15;6.57;;;;;;;21.62;54.42;95696.50;5046925;28;20497;-68
2022/11/01 04:47:51;;;;;;;9.73;7.45;;;;;;;21.63;54.34;95703.44;5045123;28;20076;-67
2022/11/01 04:50:18;;;;;;;9.40;7.18;;;;;;;21.65;53.20;95706.41;5044516;28;20037;-71
2022/11/01 04:52:44;;;;;;;9.18;6.43;;;;;;;21.65;53.95;95711.84;5044753;28;20053;-64
2022/11/01 04:55:10;;;;;;;9.43;6.80;;;;;;;21.65;54.07;95711.84;5047309;28;20033;-63
2022/11/01 04:57:39;;;;;;;8.73;6.40;;;;;;;20.70;nan;95568.66;5028607;28;20057;-63
2022/11/01 05:00:05;;;;;;;9.90;6.82;;;;;;;21.29;53.91;95692.69;5043095;28;20053;-67
2022/11/01 05:02:31;;;;;;;9.73;7.32;;;;;;;21.62;53.74;95713.53;5045067;28;20053;-68
2022/11/01 05:04:56;;;;;;;9.85;7.18;;;;;;;21.63;53.30;95714.31;5044886;28;20079;-66
2022/11/01 05:07:22;;;;;;;9.40;6.75;;;;;;;21.63;53.69;95714.31;5045507;28;20354;-66
2022/11/01 05:09:47;;;;;;;8.57;6.63;;;;;;;21.55;53.79;95718.66;5045512;28;20475;-69
2022/11/01 05:12:12;;;;;;;8.77;6.55;;;;;;;21.64;53.80;95721.22;5044804;28;20343;-66
2022/11/01 05:14:38;;;;;;;10.23;6.78;;;;;;;21.64;53.68;95742.97;5027653;28;20481;-69
2022/11/01 05:17:03;;;;;;;9.68;7.00;;;;;;;21.51;53.38;95707.28;5033183;28;20040;-68
2022/11/01 05:19:29;;;;;;;11.93;7.05;;;;;;;21.57;52.53;95711.53;5044005;28;20033;-65
2022/11/01 05:21:55;;;;;;;10.73;7.72;;;;;;;20.09;47.90;95586.19;5043741;28;20794;-67
2022/11/01 05:24:20;;;;;;;10.15;7.45;;;;;;;21.23;50.93;95706.22;5041017;28;20041;-64
2022/11/01 05:26:45;;;;;;;10.60;6.68;;;;;;;21.65;50.42;95747.19;5042684;28;20544;-66
2022/11/01 05:29:11;;;;;;;10.35;6.78;;;;;;;21.93;49.82;95749.66;5045194;28;20048;-69
2022/11/01 05:31:36;;;;;;;8.93;6.10;;;;;;;21.75;49.87;95713.16;5046053;28;20032;-67
2022/11/01 05:34:02;;;;;;;7.90;6.30;;;;;;;21.98;49.56;95751.66;5044464;28;20048;-68
2022/11/01 05:36:28;;;;;;;9.45;6.45;;;;;;;21.70;49.43;95697.53;5042176;28;20041;-68
2022/11/01 05:38:57;;;;;;;8.80;6.47;;;;;;;22.00;49.64;95743.78;5009531;28;20070;-71
2022/11/01 05:41:23;;;;;;;9.48;6.10;;;;;;;22.00;49.38;95765.56;5085720;22;20048;-65
2022/11/01 05:43:48;;;;;;;8.88;5.97;;;;;;;22.10;49.36;95747.06;5046946;28;20508;-61
2022/11/01 05:46:13;;;;;;;10.52;6.07;;;;;;;22.11;49.12;95743.88;5065044;28;20043;-63
2022/11/01 05:48:40;;;;;;;8.45;6.28;;;;;;;22.15;49.02;95743.66;5064097;28;20048;-61
2022/11/01 05:51:05;;;;;;;9.45;6.05;;;;;;;20.17;48.93;95451.69;5042721;28;20496;-65
2022/11/01 05:53:30;;;;;;;9.65;6.30;;;;;;;22.11;48.87;95746.59;5052561;28;20036;-66
2022/11/01 05:55:56;;;;;;;9.63;6.38;;;;;;;22.20;48.75;95762.75;5045635;28;20511;-67
2022/11/01 05:58:21;;;;;;;11.02;6.55;;;;;;;22.15;48.83;95747.13;5044317;28;20025;-63
2022/11/01 06:00:47;;;;;;;8.15;6.03;;;;;;;22.33;48.43;95765.09;5046371;28;20056;-66
2022/11/01 06:03:12;;;;;;;8.73;6.30;;;;;;;22.42;48.49;95757.50;5025303;28;20387;-60
2022/11/01 06:05:38;;;;;;;11.15;6.60;;;;;;;22.55;47.96;95765.97;5043841;28;20045;-65
2022/11/01 06:08:04;;;;;;;8.18;5.75;;;;;;;22.56;48.18;95767.47;5044898;28;20045;-64
2022/11/01 06:10:30;;;;;;;12.68;9.27;;;;;;;21.68;47.54;95613.03;5049958;28;20040;-62
2022/11/01 06:12:55;;;;;;;13.18;10.95;;;;;;;22.52;47.69;95734.28;5047539;28;20052;-63
2022/11/01 06:15:21;;;;;;;11.02;9.32;;;;;;;22.90;46.81;95765.19;5044051;28;20044;-64
2022/11/01 06:17:46;;;;;;;13.30;9.88;;;;;;;21.88;46.83;95618.34;5050815;28;20060;-65
2022/11/01 06:20:12;;;;;;;13.35;10.52;;;;;;;23.05;46.63;95797.75;5064062;28;20032;-65
2022/11/01 06:22:37;;;;;;;12.07;10.20;;;;;;;23.14;46.78;95773.75;5045767;28;20425;-67
2022/11/01 06:25:03;;;;;;;13.52;10.52;;;;;;;23.49;46.10;95749.59;5052224;28;20105;-67
2022/11/01 06:27:29;;;;;;;14.45;10.25;;;;;;;22.34;45.97;95620.38;5047914;28;20041;-63
2022/11/01 06:29:54;;;;;;;13.57;10.85;;;;;;;23.63;45.61;95775.91;5046642;28;20051;-67
2022/11/01 06:32:20;;;;;;;13.07;10.20;;;;;;;23.01;45.65;95678.09;5046445;28;20493;-63
2022/11/01 06:34:45;;;;;;;10.77;9.40;;;;;;;23.62;45.74;95775.16;5063707;28;20041;-62
2022/11/01 06:37:11;;;;;;;12.45;9.63;;;;;;;23.70;45.64;95778.19;5050558;28;20028;-66
2022/11/01 06:39:36;;;;;;;22.30;10.30;;;;;;;23.80;45.70;95774.00;5053834;28;20160;-63
2022/11/01 06:42:02;;;;;;;11.05;9.02;;;;;;;23.96;44.68;95776.72;5039422;28;20048;-66
2022/11/01 06:44:27;;;;;;;14.00;10.00;;;;;;;23.99;45.29;95781.94;5045206;28;20052;-68
2022/11/01 06:46:53;;;;;;;13.05;9.48;;;;;;;23.92;44.90;95782.44;5042374;28;20048;-68
2022/11/01 06:49:19;;;;;;;14.02;9.70;;;;;;;23.87;44.72;95764.09;5025661;28;20674;-69
2022/11/01 06:51:45;;;;;;;11.82;9.02;;;;;;;23.36;44.32;95664.81;5025461;28;20045;-68
2022/11/01 06:54:10;;;;;;;11.63;8.85;;;;;;;24.15;44.58;95775.75;5048055;28;20481;-65
2022/11/01 06:56:36;;;;;;;12.98;8.95;;;;;;;23.84;44.90;95747.19;5051228;28;20052;-67
2022/11/01 06:59:01;;;;;;;11.23;8.35;;;;;;;24.47;44.34;95798.88;5050927;28;20044;-62
2022/11/01 07:01:28;;;;;;;11.07;8.45;;;;;;;24.13;44.79;95780.22;5045510;28;20072;-68
2022/11/01 07:03:53;;;;;;;12.15;9.20;;;;;;;24.03;44.77;95776.97;5044120;28;20535;-68
2022/11/01 07:06:19;;;;;;;12.13;8.68;;;;;;;24.09;44.26;95775.00;5025186;28;20033;-67
2022/11/01 07:08:44;;;;;;;10.93;8.68;;;;;;;24.12;44.60;95787.66;5045232;28;20513;-63
2022/11/01 07:11:10;;;;;;;13.70;8.50;;;;;;;23.93;45.07;95773.00;5023119;28;20536;-66
2022/11/01 07:13:37;;;;;;;13.25;8.85;;;;;;;24.02;44.91;95772.78;5041828;28;20071;-63
2022/11/01 07:16:03;;;;;;;12.35;9.20;;;;;;;24.06;44.80;95792.34;5041005;28;20029;-63
2022/11/01 07:18:29;;;;;;;10.20;7.72;;;;;;;24.00;44.95;95804.50;5040897;28;20147;-64
2022/11/01 07:20:55;;;;;;;10.10;7.80;;;;;;;24.03;44.76;95776.97;5040990;28;20045;-63
2022/11/01 07:23:21;;;;;;;10.55;8.43;;;;;;;24.09;44.56;95775.00;5044057;28;20036;-69
2022/11/01 07:25:52;;;;;;;11.88;7.97;;;;;;;24.14;44.56;95787.91;5041603;28;20438;-69
2022/11/01 07:28:18;;;;;;;12.68;8.52;;;;;;;24.21;44.28;95781.94;5045852;28;20035;-67
2022/11/01 07:30:52;;;;;;;10.45;7.85;;;;;;;24.12;43.97;95779.47;5043712;28;20029;-63
2022/11/01 07:33:17;;;;;;;11.30;8.20;;;;;;;24.13;44.43;95778.22;5041556;28;20494;-70
2022/11/01 07:35:43;;;;;;;11.95;8.43;;;;;;;24.19;44.30;95778.97;5042431;28;20045;-69
2022/11/01 07:38:09;;;;;;;10.60;8.18;;;;;;;24.27;44.18;95769.03;5024284;28;20474;-64
2022/11/01 07:40:35;;;;;;;10.13;7.75;;;;;;;24.23;44.00;95779.50;5024221;28;20037;-67
2022/11/01 07:43:01;;;;;;;10.45;7.68;;;;;;;23.94;44.16;95746.47;5042993;28;20040;-67
2022/11/01 07:45:27;;;;;;;9.82;8.05;;;;;;;24.15;44.28;95786.66;5042761;28;20057;-64
2022/11/01 07:48:01;;;;;;;10.77;7.70;;;;;;;24.25;44.01;95809.75;5045149;28;20136;-64
2022/11/01 07:50:27;;;;;;;11.48;8.13;;;;;;;23.49;44.10;95656.91;5025416;28;20120;-62
2022/11/01 07:53:06;;;;;;;11.10;8.38;;;;;;;24.28;43.44;95808.75;5045639;28;20476;-66
2022/11/01 07:55:32;;;;;;;9.63;7.53;;;;;;;24.26;43.88;95773.03;5044583;28;20021;-70
2022/11/01 07:57:57;;;;;;;10.45;7.82;;;;;;;24.25;43.40;95771.53;5010878;28;20490;-63
2022/11/01 08:00:23;;;;;;;10.70;7.38;;;;;;;24.31;43.44;95769.56;5044971;28;20053;-64
2022/11/01 08:02:48;;;;;;;10.85;8.15;;;;;;;24.22;43.63;95739.03;5041858;28;20087;-67
2022/11/01 08:05:14;;;;;;;9.57;7.53;;;;;;;24.40;43.14;95780.25;5041438;28;20060;-63
2022/11/01 08:07:39;;;;;;;8.90;7.20;;;;;;;24.41;43.52;95768.84;5038363;28;20098;-63
2022/11/01 08:10:09;;;;;;;11.45;8.15;;;;;;;24.40;43.24;95769.31;5028917;28;20421;-61
2022/11/01 08:12:35;;;;;;;10.75;7.93;;;;;;;24.49;43.35;95769.81;5039076;28;20060;-65
2022/11/01 08:15:04;;;;;;;9.50;7.35;;;;;;;22.69;43.17;95500.97;5044465;28;20076;-61
2022/11/01 08:17:29;;;;;;;10.45;7.85;;;;;;;24.29;43.45;95766.59;5045903;28;20040;-65
2022/11/01 08:19:55;;;;;;;10.52;7.18;;;;;;;23.59;43.08;95639.81;5044932;28;20037;-67
2022/11/01 08:22:20;;;;;;;9.02;7.07;;;;;;;24.48;43.33;95762.88;5027956;28;20036;-65
2022/11/01 08:24:45;;;;;;;9.82;7.45;;;;;;;23.45;42.97;95599.91;5044909;28;20301;-64
2022/11/01 08:27:11;;;;;;;9.25;7.38;;;;;;;24.61;42.55;95765.09;5046128;28;20057;-66
2022/11/01 08:29:36;;;;;;;10.02;7.88;;;;;;;23.58;42.57;95594.69;5046834;28;20098;-66
2022/11/01 08:32:02;;;;;;;8.98;7.10;;;;;;;24.57;42.59;95734.53;5045623;28;20037;-68
2022/11/01 08:34:29;;;;;;;11.27;7.63;;;;;;;24.00;42.33;95644.28;5045643;28;20023;-65
2022/11/01 08:36:55;;;;;;;9.98;7.00;;;;;;;24.86;42.44;95742.94;5029651;28;20530;-63
2022/11/01 08:39:21;;;;;;;13.73;8.60;;;;;;;24.86;40.75;95743.66;5045202;28;20043;-69
2022/11/01 08:41:48;;;;;;;12.70;8.45;;;;;;;24.46;41.13;95754.41;5041326;28;20052;-65
2022/11/01 08:44:13;;;;;;;13.43;9.13;;;;;;;24.27;40.45;95769.03;5065504;28;20064;-61
2022/11/01 08:46:41;;;;;;;12.07;8.50;;;;;;;23.52;39.93;95623.94;5065916;28;20113;-68
2022/11/01 08:49:08;;;;;;;12.20;9.35;;;;;;;24.37;38.70;95762.13;5066750;28;20032;-66
2022/11/01 08:51:34;;;;;;;17.27;9.98;;;;;;;23.77;40.41;95753.16;5066097;28;20029;-64
2022/11/01 08:53:59;;;;;;;14.18;9.05;;;;;;;23.81;40.54;95743.50;5066063;28;20375;-61
2022/11/01 08:56:26;;;;;;;12.88;9.18;;;;;;;23.86;39.63;95744.75;5065797;28;20532;-60
2022/11/01 08:58:51;;;;;;;16.08;9.57;;;;;;;23.08;39.04;95601.38;5047715;28;20177;-66
2022/11/01 09:01:17;;;;;;;14.50;9.70;;;;;;;23.98;39.51;95736.81;5064533;28;20385;-64
2022/11/01 09:03:42;;;;;;;15.00;10.13;;;;;;;23.88;39.48;95738.31;5062733;28;20040;-67
2022/11/01 09:06:08;;;;;;;18.38;10.38;;;;;;;23.86;39.14;95718.19;5053533;28;20040;-69
2022/11/01 09:08:33;;;;;;;17.25;9.82;;;;;;;23.87;39.16;95734.06;5066196;28;20120;-70
2022/11/01 09:10:59;;;;;;;16.15;9.75;;;;;;;22.74;38.70;95587.41;5065225;28;20052;-68
2022/11/01 09:13:24;;;;;;;14.05;9.50;;;;;;;23.51;39.54;95730.75;5066745;28;20040;-66
2022/11/01 09:15:50;;;;;;;14.73;9.27;;;;;;;22.45;39.33;95564.03;5065565;28;20043;-66
2022/11/01 09:18:15;;;;;;;15.57;8.80;;;;;;;23.56;39.73;95725.31;5065356;28;20041;-68
2022/11/01 09:20:41;;;;;;;13.27;8.23;;;;;;;22.89;39.35;95615.91;5065016;28;20044;-67
2022/11/01 09:23:06;;;;;;;11.88;8.50;;;;;;;23.84;39.34;95720.69;5065394;28;20032;-65
2022/11/01 09:25:32;;;;;;;12.77;8.38;;;;;;;23.51;39.47;95670.78;5063830;28;20029;-63
2022/11/01 09:27:57;;;;;;;11.32;8.30;;;;;;;23.64;40.13;95718.16;5066415;28;20032;-64
2022/11/01 09:30:23;;;;;;;12.82;8.45;;;;;;;23.65;39.73;95697.13;5060952;28;20048;-71
2022/11/01 09:32:49;;;;;;;16.65;8.45;;;;;;;23.67;39.26;95716.44;5064979;28;20456;-66
2022/11/01 09:35:14;;;;;;;13.80;8.73;;;;;;;23.54;39.83;95680.69;5047820;28;20044;-64
2022/11/01 09:37:40;;;;;;;17.17;9.07;;;;;;;23.77;39.79;95709.53;5065519;28;20021;-61
2022/11/01 09:40:06;;;;;;;16.10;8.07;;;;;;;22.74;40.78;95554.72;5065371;28;20414;-68
2022/11/01 09:42:34;;;;;;;15.80;8.90;;;;;;;23.55;39.77;95676.75;5030094;28;20044;-67
2022/11/01 09:45:03;;;;;;;15.02;8.43;;;;;;;23.70;39.91;95696.38;5047093;28;20032;-64
2022/11/01 09:47:28;;;;;;;13.40;8.45;;;;;;;22.71;39.97;95547.53;5065046;28;20047;-66
2022/11/01 09:50:11;;;;;;;14.25;8.73;;;;;;;23.70;39.19;95671.81;5064675;28;20037;-68
2022/11/01 09:52:36;;;;;;;13.23;8.25;;;;;;;23.78;40.66;95686.44;5047410;28;20029;-61
2022/11/01 09:55:02;;;;;;;11.07;7.50;;;;;;;23.62;40.68;95676.25;5065315;28;20390;-63
2022/11/01 09:57:34;;;;;;;14.60;9.13;;;;;;;23.51;41.34;95708.94;5064847;28;20103;-69
2022/11/01 10:00:05;;;;;;;21.13;9.23;;;;;;;23.67;40.08;95683.72;5047270;28;20044;-63
2022/11/01 10:03:09;;;;;;;12.75;7.68;;;;;;;23.72;40.63;95680.25;5064790;28;20032;-69
2022/11/01 10:05:40;;;;;;;17.45;9.25;;;;;;;23.61;39.94;95664.59;5061434;28;20063;-63
2022/11/01 10:08:30;;;;;;;11.93;7.88;;;;;;;23.69;41.18;95675.78;5046163;28;20044;-62
2022/11/01 10:11:20;;;;;;;12.50;8.10;;;;;;;23.74;41.28;95677.78;5061639;28;20111;-64
2022/11/01 10:14:08;;;;;;;13.35;7.80;;;;;;;23.78;41.37;95667.34;5064409;28;20111;-65
2022/11/01 10:16:40;;;;;;;14.82;7.60;;;;;;;23.83;40.69;95691.91;5064187;28;20028;-59
2022/11/01 10:19:10;;;;;;;12.98;8.00;;;;;;;23.73;41.20;95665.38;5063662;28;20029;-65
2022/11/01 10:21:41;;;;;;;14.13;8.65;;;;;;;23.86;40.78;95653.47;5053098;28;20497;-65
2022/11/01 10:24:12;;;;;;;14.63;8.18;;;;;;;23.88;41.26;95661.16;5046494;28;20064;-67
2022/11/01 10:26:43;;;;;;;13.88;7.95;;;;;;;23.83;41.07;95658.44;5029691;28;20421;-65
2022/11/01 10:29:42;;;;;;;17.52;7.93;;;;;;;23.79;40.73;95652.50;5062952;28;20045;-67
2022/11/01 10:32:29;;;;;;;13.73;8.25;;;;;;;23.97;40.31;95656.19;4978012;28;20043;-68
2022/11/01 10:34:54;;;;;;;12.50;8.32;;;;;;;23.30;40.92;95557.78;5050263;28;20067;-62
2022/11/01 10:37:30;;;;;;;13.68;8.20;;;;;;;23.92;40.79;95667.13;5029703;28;20040;-64
2022/11/01 10:40:00;;;;;;;16.33;8.70;;;;;;;24.01;40.38;95604.84;5032044;28;20520;-65
2022/11/01 10:42:26;;;;;;;;;;;;;;;24.17;40.29;95645.00;5029121;28;20094;-64
2022/11/01 10:44:54;;;;;;;13.07;7.63;;;;;;;24.31;40.36;95627.59;5062970;28;19928;-64
2022/11/01 10:47:20;;;;;;;13.23;8.10;;;;;;;24.26;40.10;95642.03;5039974;28;20049;-64
2022/11/01 10:49:53;;;;;;;15.00;9.25;;;;;;;24.00;39.67;95603.34;5039154;28;20170;-66
2022/11/01 10:52:24;;;;;;;19.33;10.90;;;;;;;23.52;39.05;95620.47;5061131;28;20033;-62
2022/11/01 10:54:49;;;;;;;16.65;10.18;;;;;;;23.80;38.31;95627.44;5032111;28;20082;-64
2022/11/01 10:57:29;;;;;;;18.98;9.98;;;;;;;22.42;39.00;95360.19;5018613;28;20894;-66
2022/11/01 10:59:55;;;;;;;14.77;9.75;;;;;;;23.96;39.29;95575.59;5006090;28;20052;-63
2022/11/01 11:02:21;;;;;;;17.23;9.05;;;;;;;24.39;38.97;95609.50;5002772;28;20070;-63
2022/11/01 11:04:48;;;;;;;13.40;8.73;;;;;;;22.75;39.02;95365.59;5022831;28;20033;-68
2022/11/01 11:07:15;;;;;;;14.75;8.48;;;;;;;24.41;38.72;95566.81;5002661;28;20483;-65
2022/11/01 11:09:40;;;;;;;13.95;8.20;;;;;;;24.62;38.94;95608.16;5024693;28;20135;-62
2022/11/01 11:12:10;;;;;;;11.60;8.15;;;;;;;23.96;38.76;95471.16;5022350;28;20045;-65
2022/11/01 11:14:35;;;;;;;15.88;8.13;;;;;;;24.54;38.87;95577.94;5021233;28;20152;-59
2022/11/01 11:17:01;;;;;;;15.00;8.52;;;;;;;24.71;38.98;95605.91;5002376;28;20037;-61
2022/11/01 11:19:32;;;;;;;14.82;8.35;;;;;;;24.71;39.01;95583.28;5020365;28;20236;-62
2022/11/01 11:21:58;;;;;;;14.15;8.15;;;;;;;24.96;38.60;95600.06;5019716;28;20046;-58
2022/11/01 11:24:24;;;;;;;15.73;8.20;;;;;;;24.91;39.15;95597.34;5002382;28;20060;-65
2022/11/01 11:26:51;;;;;;;13.05;8.63;;;;;;;25.14;38.58;95591.28;5008808;28;21036;-59
2022/11/01 11:29:37;;;;;;;13.25;7.97;;;;;;;25.40;38.42;95597.06;5026768;28;20437;-66
2022/11/01 11:32:03;;;;;;;15.20;8.50;;;;;;;25.29;38.14;95588.94;5020659;28;20040;-71
2022/11/01 11:34:33;;;;;;;12.18;8.18;;;;;;;25.28;38.33;95592.91;5043652;28;20493;-69
2022/11/01 11:37:00;;;;;;;14.38;7.95;;;;;;;25.17;38.22;95586.78;5043135;28;20057;-70